Cologne/Bonn Airport

Airport
ICAO code: 
EDDK
IATA Code: 
CGN
Summary
ICAO Region: 
EUR
Territory: 
Location: 
Cologne,
Serving: 
Cologne and Bonn
Elevation: 
302 ft
Coordinates: 
Aerial View: 
50° 51' 54.002" N, 7° 8' 19.562" E
Metar
Observation
EDDK 091350Z 16007KT 9999 -RA SCT026 BKN031 05/01 Q1004 NOSIG
Station
Koeln / Bonn
Date/Time
2021-12-09 13:50:00
Wind direction
160°
Wind speed
07 kts
Lowest cloud amount
scattered clouds
Temperature
5°C
Dew point
1°C
Humidity
75%
QNH
1004 hPa
Weather condition
light rain

Description

Cologne/Bonn Airport (German: Flughafen Köln/Bonn, also called Konrad-Adenauer-Flughafen or Flughafen Köln-Wahn) is an international airport located in the district of Porz in the city of Cologne, Germany, and is surrounded by the Wahner Heide nature reserve. The airport is centrally located in the Cologne/Bonn Region 14.8 km southeast of Cologne city centre and 16 km northeast of Bonn.

Climatology

Temperate Marine climate/Oceanic climate (Köppen climate classification Cfb) - Moderately cool summer and comparatively warm winter.

Runways

Designator Length Width Surface Rops
14R/32L 1863 45 ASP Yes/Yes
6/24 2459 45 CON Yes/Yes
14L/32R 3815 60 ASP Yes/Yes
Airport map: 
Aerial View: 

Accidents and Serious Incidents at or in the vicinity of EDDK

SKYbrary Partners:

Safety knowledge contributed by: